Time;durP1;ratioP1;P1;durP2;ratioP2;P2;SDS_P1;SDS_P2;PMS_P1;PMS_P2;Temp;Humidity;BMP_temperature;BMP_pressure;BME280_temperature;BME280_humidity;BME280_pressure;Samples;Min_cycle;Max_cycle;Signal;HPM_P1;HPM_P2
2023/12/06 00:01:40;;;;;;;63.47;44.15;;;3.40;99.90;;;;;;5132634;27;20027;-78
2023/12/06 00:04:06;;;;;;;83.85;54.33;;;3.30;99.90;;;;;;5114584;27;20565;-78
2023/12/06 00:06:31;;;;;;;70.00;47.45;;;3.40;99.90;;;;;;5132813;27;20034;-77
2023/12/06 00:08:57;;;;;;;72.07;47.95;;;3.30;99.90;;;;;;5132627;27;20079;-78
2023/12/06 00:11:23;;;;;;;70.32;46.60;;;3.20;99.90;;;;;;5133237;27;20038;-77
2023/12/06 00:13:48;;;;;;;67.53;45.15;;;3.20;99.90;;;;;;5132045;27;20618;-78
2023/12/06 00:16:14;;;;;;;84.68;54.33;;;3.30;99.90;;;;;;5132910;27;20019;-77
2023/12/06 00:18:41;;;;;;;74.15;48.40;;;3.20;99.90;;;;;;5113511;27;20026;-77
2023/12/06 00:21:07;;;;;;;69.70;47.03;;;3.10;99.90;;;;;;5114736;27;20045;-77
2023/12/06 00:23:33;;;;;;;66.70;45.17;;;3.10;99.90;;;;;;5113691;27;20024;-77
2023/12/06 00:25:59;;;;;;;75.97;48.45;;;3.10;99.90;;;;;;5132854;27;20034;-77
2023/12/06 00:28:25;;;;;;;76.13;50.50;;;3.00;99.90;;;;;;5132080;27;20051;-77
2023/12/06 00:30:51;;;;;;;67.10;45.63;;;3.10;99.90;;;;;;5131995;27;20050;-78
2023/12/06 00:33:16;;;;;;;68.22;45.08;;;3.00;99.90;;;;;;5132464;27;20027;-78
2023/12/06 00:35:42;;;;;;;76.00;49.92;;;3.00;99.90;;;;;;5131856;27;20057;-77
2023/12/06 00:38:09;;;;;;;72.97;49.78;;;3.00;99.90;;;;;;5132332;27;20035;-77
2023/12/06 00:40:34;;;;;;;75.68;49.78;;;2.90;99.90;;;;;;5131905;27;20106;-78
2023/12/06 00:43:00;;;;;;;74.72;48.72;;;3.00;99.90;;;;;;5132067;27;20397;-77
2023/12/06 00:45:26;;;;;;;73.65;48.47;;;2.90;99.90;;;;;;5132667;27;20119;-77
2023/12/06 00:47:52;;;;;;;73.68;44.67;;;2.90;99.90;;;;;;5132571;27;20050;-79
2023/12/06 00:50:18;;;;;;;73.15;47.15;;;2.90;99.90;;;;;;5096525;27;20106;-78
2023/12/06 00:52:43;;;;;;;70.35;46.20;;;2.80;99.90;;;;;;5132028;27;20063;-79
2023/12/06 00:55:09;;;;;;;74.32;47.38;;;2.80;99.90;;;;;;5132509;27;20054;-79
2023/12/06 00:57:35;;;;;;;57.38;41.25;;;2.70;99.90;;;;;;5113063;27;20479;-79
2023/12/06 01:00:00;;;;;;;59.83;39.42;;;2.70;99.90;;;;;;5132466;27;20215;-78
2023/12/06 01:02:26;;;;;;;65.55;43.30;;;2.60;99.90;;;;;;5113464;27;20023;-79
2023/12/06 01:04:52;;;;;;;68.10;42.72;;;2.60;99.90;;;;;;5131036;27;20038;-78
2023/12/06 01:07:18;;;;;;;60.38;40.53;;;2.60;99.90;;;;;;5132403;27;20023;-80
2023/12/06 01:09:44;;;;;;;65.57;43.20;;;2.60;99.90;;;;;;5131705;27;20027;-77
2023/12/06 01:12:10;;;;;;;65.85;42.28;;;2.50;99.90;;;;;;5132215;27;20039;-77
2023/12/06 01:14:36;;;;;;;56.70;39.83;;;2.60;99.90;;;;;;5131859;27;20350;-78
2023/12/06 01:17:02;;;;;;;58.97;38.35;;;2.60;99.90;;;;;;5132202;27;20485;-77
2023/12/06 01:19:27;;;;;;;61.47;40.15;;;2.70;99.90;;;;;;5132573;27;20368;-77
2023/12/06 01:21:53;;;;;;;62.45;41.72;;;2.60;99.90;;;;;;5131872;27;20027;-77
2023/12/06 01:24:19;;;;;;;65.95;42.13;;;2.70;99.90;;;;;;5114001;27;20027;-78
2023/12/06 01:26:45;;;;;;;58.08;38.03;;;2.70;99.90;;;;;;5131748;27;20110;-78
2023/12/06 01:29:11;;;;;;;59.53;38.42;;;2.70;99.90;;;;;;5131888;27;20054;-78
2023/12/06 01:31:38;;;;;;;62.30;40.65;;;2.70;99.90;;;;;;5114777;27;20019;-77
2023/12/06 01:34:05;;;;;;;63.20;41.47;;;2.60;99.90;;;;;;5131956;27;20038;-77
2023/12/06 01:36:32;;;;;;;53.40;36.28;;;2.50;99.90;;;;;;5132252;27;20033;-77
2023/12/06 01:38:57;;;;;;;55.38;37.17;;;2.60;99.90;;;;;;5131906;27;20034;-77
2023/12/06 01:41:23;;;;;;;51.70;37.00;;;2.60;99.90;;;;;;5131634;27;20031;-77
2023/12/06 01:43:49;;;;;;;51.65;32.78;;;2.60;99.90;;;;;;5132039;27;20034;-78
2023/12/06 01:46:15;;;;;;;61.97;37.95;;;2.60;99.90;;;;;;5132063;27;20031;-78
2023/12/06 01:48:43;;;;;;;61.28;35.88;;;2.60;99.90;;;;;;5131870;27;20023;-78
2023/12/06 01:51:09;;;;;;;58.42;37.22;;;2.40;99.90;;;;;;5114383;27;20214;-77
2023/12/06 01:53:35;;;;;;;60.95;39.75;;;2.40;99.90;;;;;;5131555;27;20120;-78
2023/12/06 01:56:02;;;;;;;54.83;34.28;;;2.50;99.90;;;;;;5131891;27;20043;-77
2023/12/06 01:58:29;;;;;;;54.63;36.53;;;2.50;99.90;;;;;;5132341;27;20027;-77
2023/12/06 02:00:56;;;;;;;51.42;33.47;;;2.50;99.90;;;;;;5131437;27;20357;-77
2023/12/06 02:03:22;;;;;;;44.63;31.00;;;2.50;99.90;;;;;;5131774;27;20024;-77
2023/12/06 02:05:49;;;;;;;53.22;35.33;;;2.50;99.90;;;;;;5131273;28;20031;-77
2023/12/06 02:08:16;;;;;;;57.60;35.78;;;2.50;99.90;;;;;;5131395;28;20444;-77
2023/12/06 02:10:42;;;;;;;53.80;35.65;;;2.30;99.90;;;;;;5130950;28;20472;-77
2023/12/06 02:13:08;;;;;;;42.22;30.73;;;2.40;99.90;;;;;;5132123;28;20073;-77
2023/12/06 02:15:34;;;;;;;56.95;36.38;;;2.40;99.90;;;;;;5131642;28;20030;-78
2023/12/06 02:18:02;;;;;;;47.10;30.08;;;2.40;99.90;;;;;;5132720;28;20019;-78
2023/12/06 02:20:29;;;;;;;45.75;30.30;;;2.40;99.90;;;;;;5131688;28;20054;-77
2023/12/06 02:22:57;;;;;;;41.58;28.08;;;2.30;99.90;;;;;;5112487;28;20033;-78
2023/12/06 02:25:22;;;;;;;47.10;29.98;;;2.40;99.90;;;;;;5132350;28;20483;-77
2023/12/06 02:27:48;;;;;;;49.80;32.03;;;2.40;99.90;;;;;;5131317;28;20027;-78
2023/12/06 02:30:14;;;;;;;48.17;32.38;;;2.40;99.90;;;;;;5131634;28;20456;-78
2023/12/06 02:32:40;;;;;;;48.63;32.97;;;2.40;99.90;;;;;;5131668;28;20445;-78
2023/12/06 02:35:14;;;;;;;48.47;31.23;;;2.40;99.90;;;;;;5132921;28;20136;-77
2023/12/06 02:37:41;;;;;;;43.58;28.20;;;2.30;99.90;;;;;;5131813;28;20023;-78
2023/12/06 02:40:12;;;;;;;43.50;29.13;;;2.40;99.90;;;;;;5131346;28;20033;-78
2023/12/06 02:42:38;;;;;;;41.95;28.80;;;2.40;99.90;;;;;;5130951;28;20034;-79
2023/12/06 02:45:04;;;;;;;45.88;31.00;;;2.40;99.90;;;;;;5130891;28;20035;-78
2023/12/06 02:47:29;;;;;;;48.45;31.33;;;2.40;99.90;;;;;;5131410;28;20055;-77
2023/12/06 02:49:55;;;;;;;45.33;28.88;;;2.50;99.90;;;;;;5131614;28;20050;-78
2023/12/06 02:52:21;;;;;;;42.38;27.27;;;2.40;99.90;;;;;;5131702;27;20023;-77
2023/12/06 02:54:46;;;;;;;39.13;25.63;;;2.40;99.90;;;;;;5134268;27;20023;-78
2023/12/06 02:57:12;;;;;;;54.50;30.90;;;2.40;99.90;;;;;;5134843;27;20480;-77
2023/12/06 02:59:38;;;;;;;54.63;32.80;;;2.40;99.90;;;;;;5134520;27;20110;-78
2023/12/06 03:02:04;;;;;;;56.25;33.35;;;2.30;99.90;;;;;;5134628;27;20039;-76
2023/12/06 03:04:30;;;;;;;37.58;27.00;;;2.40;99.90;;;;;;5134978;27;20023;-77
2023/12/06 03:06:56;;;;;;;40.42;26.50;;;2.30;99.90;;;;;;5134367;27;20152;-77
2023/12/06 03:09:21;;;;;;;36.53;23.98;;;2.30;99.90;;;;;;5134910;27;20483;-77
2023/12/06 03:11:47;;;;;;;39.13;26.10;;;2.30;99.90;;;;;;5115704;27;20031;-77
2023/12/06 03:14:14;;;;;;;41.45;25.33;;;2.40;99.90;;;;;;5134923;27;20019;-77
2023/12/06 03:16:40;;;;;;;35.53;22.02;;;2.40;99.90;;;;;;5134671;27;20055;-78
2023/12/06 03:19:05;;;;;;;32.85;21.65;;;2.40;99.90;;;;;;5134905;27;20058;-77
2023/12/06 03:21:37;;;;;;;34.47;20.15;;;2.30;99.90;;;;;;5134421;27;20374;-77
2023/12/06 03:24:03;;;;;;;30.92;21.13;;;2.30;99.90;;;;;;5134187;27;20039;-77
2023/12/06 03:26:28;;;;;;;38.67;20.15;;;2.30;99.90;;;;;;5134481;27;20524;-78
2023/12/06 03:28:54;;;;;;;30.05;19.23;;;2.30;99.90;;;;;;5133731;27;20491;-78
2023/12/06 03:31:20;;;;;;;28.30;19.58;;;2.50;99.90;;;;;;5133806;27;20023;-77
2023/12/06 03:33:45;;;;;;;37.15;22.50;;;2.50;99.90;;;;;;5133645;27;20098;-78
2023/12/06 03:36:12;;;;;;;34.50;19.20;;;2.40;99.90;;;;;;5134654;27;20096;-77
2023/12/06 03:38:39;;;;;;;35.45;23.05;;;2.50;99.90;;;;;;5115815;27;20019;-77
2023/12/06 03:41:05;;;;;;;35.00;19.65;;;2.50;99.90;;;;;;5134047;27;20079;-77
2023/12/06 03:43:31;;;;;;;37.10;20.98;;;2.40;99.90;;;;;;5134418;27;20107;-77
2023/12/06 03:45:57;;;;;;;31.02;18.58;;;2.40;99.90;;;;;;5115507;27;20114;-77
2023/12/06 03:48:22;;;;;;;26.25;17.25;;;2.50;99.90;;;;;;5134276;27;20404;-77
2023/12/06 03:50:48;;;;;;;28.83;16.05;;;2.50;99.90;;;;;;5133529;27;20027;-77
2023/12/06 03:53:14;;;;;;;30.63;17.27;;;2.50;99.90;;;;;;5134405;27;20034;-77
2023/12/06 03:55:39;;;;;;;30.80;18.33;;;2.70;99.90;;;;;;5133982;27;20054;-77
2023/12/06 03:58:06;;;;;;;33.50;18.92;;;2.80;99.90;;;;;;5133769;27;20043;-77
2023/12/06 04:00:32;;;;;;;36.70;20.95;;;2.90;99.90;;;;;;5133960;27;20027;-77
2023/12/06 04:02:58;;;;;;;30.83;18.52;;;3.00;99.90;;;;;;5132648;27;20035;-77
2023/12/06 04:05:24;;;;;;;27.83;17.88;;;3.00;99.90;;;;;;5133957;27;20034;-77
2023/12/06 04:07:49;;;;;;;27.20;16.27;;;3.30;99.90;;;;;;5133113;27;20035;-78
2023/12/06 04:10:15;;;;;;;25.70;15.65;;;3.30;99.90;;;;;;5133788;27;20050;-77
2023/12/06 04:12:41;;;;;;;24.00;14.70;;;3.50;99.90;;;;;;5133592;27;20092;-77
2023/12/06 04:15:07;;;;;;;21.65;13.20;;;3.60;99.90;;;;;;5133729;27;20023;-78
2023/12/06 04:17:33;;;;;;;20.15;13.02;;;3.70;99.90;;;;;;5133742;27;20099;-77
2023/12/06 04:19:58;;;;;;;20.30;13.35;;;4.00;99.90;;;;;;5133641;27;20050;-77
2023/12/06 04:22:24;;;;;;;20.27;12.07;;;4.10;99.90;;;;;;5132949;27;20039;-76
2023/12/06 04:24:50;;;;;;;21.80;11.45;;;4.30;99.90;;;;;;5132667;27;20019;-77
2023/12/06 04:27:15;;;;;;;16.33;11.13;;;4.50;99.90;;;;;;5133297;27;20376;-76
2023/12/06 04:29:41;;;;;;;18.70;11.18;;;4.60;99.90;;;;;;5133234;27;20031;-76
2023/12/06 04:32:07;;;;;;;16.80;10.80;;;4.60;99.90;;;;;;5132133;27;20400;-77
2023/12/06 04:34:33;;;;;;;15.13;10.73;;;4.80;99.90;;;;;;5114866;27;20023;-75
2023/12/06 04:36:59;;;;;;;17.77;10.57;;;4.70;99.90;;;;;;5114157;27;20451;-77
2023/12/06 04:39:24;;;;;;;14.32;10.02;;;4.90;99.90;;;;;;5132789;27;20356;-77
2023/12/06 04:41:50;;;;;;;16.80;10.63;;;5.00;99.90;;;;;;5131970;27;20071;-77
2023/12/06 04:44:16;;;;;;;12.32;8.85;;;5.00;99.90;;;;;;5132867;27;20031;-77
2023/12/06 04:46:42;;;;;;;13.55;8.90;;;5.20;99.90;;;;;;5133297;27;20380;-78
2023/12/06 04:49:08;;;;;;;12.88;9.82;;;5.20;99.90;;;;;;5132066;27;20027;-78
2023/12/06 04:51:33;;;;;;;14.55;9.20;;;5.30;99.90;;;;;;5132806;27;20058;-76
2023/12/06 04:53:59;;;;;;;11.68;8.07;;;5.40;99.90;;;;;;5132073;27;20371;-76
2023/12/06 04:56:25;;;;;;;13.73;9.00;;;5.50;99.90;;;;;;5132647;27;20054;-77
2023/12/06 04:58:50;;;;;;;15.23;8.63;;;5.60;99.90;;;;;;5131790;27;20199;-77
2023/12/06 05:01:16;;;;;;;10.75;7.70;;;5.80;99.90;;;;;;5132140;27;20039;-77
2023/12/06 05:03:42;;;;;;;12.10;8.68;;;5.80;99.90;;;;;;5132364;27;20055;-77
2023/12/06 05:06:07;;;;;;;10.00;7.85;;;5.90;99.90;;;;;;5131939;27;20302;-77
2023/12/06 05:08:33;;;;;;;9.98;8.20;;;5.90;99.90;;;;;;5114091;27;20030;-77
2023/12/06 05:10:59;;;;;;;11.52;8.00;;;5.90;99.90;;;;;;5131854;27;20124;-77
2023/12/06 05:13:24;;;;;;;13.38;7.97;;;5.90;99.90;;;;;;5132400;27;20055;-77
2023/12/06 05:15:50;;;;;;;11.38;7.35;;;6.00;99.90;;;;;;5112361;27;20030;-77
2023/12/06 05:18:16;;;;;;;10.43;7.72;;;6.10;99.90;;;;;;5132495;27;20155;-77
2023/12/06 05:20:41;;;;;;;13.20;8.55;;;6.10;99.90;;;;;;5132468;27;20062;-77
2023/12/06 05:23:07;;;;;;;9.02;6.50;;;6.00;99.90;;;;;;5131519;27;20063;-77
2023/12/06 05:25:33;;;;;;;7.50;6.28;;;6.10;99.90;;;;;;5131853;27;20072;-77
2023/12/06 05:27:58;;;;;;;10.90;7.15;;;6.10;99.90;;;;;;5131225;27;20027;-77
2023/12/06 05:30:24;;;;;;;8.90;6.00;;;6.10;99.90;;;;;;5132026;27;20027;-77
2023/12/06 05:32:50;;;;;;;9.70;6.65;;;6.10;99.90;;;;;;5131131;27;20042;-78
2023/12/06 05:35:16;;;;;;;11.63;6.97;;;6.10;99.90;;;;;;5131718;27;20107;-77
2023/12/06 05:37:41;;;;;;;9.00;5.95;;;6.10;99.90;;;;;;5131955;27;20019;-77
2023/12/06 05:40:07;;;;;;;6.93;5.32;;;6.10;99.90;;;;;;5131386;27;20120;-77
2023/12/06 05:42:33;;;;;;;7.78;5.50;;;6.20;99.90;;;;;;5113084;27;20031;-77
2023/12/06 05:44:59;;;;;;;8.85;5.15;;;6.20;99.90;;;;;;5131171;27;20023;-77
2023/12/06 05:47:25;;;;;;;7.78;5.80;;;6.10;99.90;;;;;;5132178;27;20085;-77
2023/12/06 05:49:51;;;;;;;6.65;5.28;;;6.30;99.90;;;;;;5131044;27;20026;-77
2023/12/06 05:52:17;;;;;;;5.72;4.57;;;6.30;99.90;;;;;;5131950;27;20023;-77
2023/12/06 05:54:42;;;;;;;7.38;5.43;;;6.40;99.90;;;;;;5131578;27;20024;-78
2023/12/06 05:57:09;;;;;;;8.27;4.70;;;6.50;99.90;;;;;;5131088;27;20072;-76
2023/12/06 05:59:35;;;;;;;11.25;5.68;;;6.40;99.90;;;;;;5131669;27;20393;-77
2023/12/06 06:02:00;;;;;;;8.13;4.82;;;6.60;99.90;;;;;;5112440;27;20065;-77
2023/12/06 06:04:26;;;;;;;7.72;5.18;;;6.60;99.90;;;;;;5131494;27;20046;-78
2023/12/06 06:06:52;;;;;;;10.48;5.40;;;6.60;99.90;;;;;;5131188;28;20042;-78
2023/12/06 06:09:19;;;;;;;8.07;4.90;;;6.50;99.90;;;;;;5131652;28;20455;-77
2023/12/06 06:11:45;;;;;;;5.18;4.63;;;6.60;99.90;;;;;;5131640;28;20037;-77
2023/12/06 06:14:11;;;;;;;8.50;4.95;;;6.60;99.90;;;;;;5130719;28;20114;-77
2023/12/06 06:16:37;;;;;;;7.03;5.00;;;6.60;99.90;;;;;;5112871;28;20513;-77
2023/12/06 06:19:02;;;;;;;7.63;4.65;;;6.70;99.90;;;;;;5130801;28;20023;-79
2023/12/06 06:21:28;;;;;;;8.32;4.70;;;6.60;99.90;;;;;;5131180;28;20102;-78
2023/12/06 06:23:54;;;;;;;6.43;4.90;;;6.70;99.90;;;;;;5130930;28;20375;-79
2023/12/06 06:26:19;;;;;;;7.00;4.78;;;6.70;99.90;;;;;;5131903;27;20031;-77
2023/12/06 06:28:45;;;;;;;9.18;5.05;;;6.70;99.90;;;;;;5135784;27;20027;-77
2023/12/06 06:31:11;;;;;;;9.38;4.57;;;6.60;99.90;;;;;;5134779;27;20022;-78
2023/12/06 06:33:37;;;;;;;8.38;4.75;;;6.70;99.90;;;;;;5116909;27;20031;-77
2023/12/06 06:36:03;;;;;;;7.00;4.05;;;6.60;99.90;;;;;;5116216;27;20031;-77
2023/12/06 06:38:28;;;;;;;8.30;4.57;;;6.70;99.90;;;;;;5134989;27;20019;-78
2023/12/06 06:40:54;;;;;;;8.77;4.65;;;6.80;99.90;;;;;;5134608;27;20023;-77
2023/12/06 06:43:20;;;;;;;10.32;4.57;;;6.80;99.90;;;;;;5135100;27;20039;-78
2023/12/06 06:45:45;;;;;;;5.80;3.75;;;6.80;99.90;;;;;;5135033;27;20027;-78
2023/12/06 06:48:11;;;;;;;7.65;4.40;;;6.80;99.90;;;;;;5134719;27;20023;-78
2023/12/06 06:50:37;;;;;;;4.88;3.65;;;6.80;99.90;;;;;;5134763;27;20099;-77
2023/12/06 06:53:03;;;;;;;7.07;4.00;;;6.70;99.90;;;;;;5134901;27;20023;-78
2023/12/06 06:55:28;;;;;;;6.93;3.47;;;6.70;99.90;;;;;;5115971;27;20403;-77
2023/12/06 06:57:56;;;;;;;6.63;3.30;;;6.60;99.90;;;;;;5134534;27;20031;-78
2023/12/06 07:00:22;;;;;;;4.28;3.28;;;6.70;99.90;;;;;;5134701;27;20070;-77
2023/12/06 07:02:48;;;;;;;4.10;2.90;;;6.70;99.90;;;;;;5134732;27;20035;-77
2023/12/06 07:05:14;;;;;;;3.38;2.70;;;6.70;99.90;;;;;;5133930;27;20087;-77
2023/12/06 07:07:41;;;;;;;3.00;2.70;;;6.60;99.90;;;;;;5134233;27;20019;-77
2023/12/06 07:10:09;;;;;;;2.88;2.25;;;6.70;99.90;;;;;;5134127;27;20027;-78
2023/12/06 07:12:36;;;;;;;4.20;2.58;;;6.70;99.90;;;;;;5134989;27;20332;-77
2023/12/06 07:15:02;;;;;;;5.85;2.55;;;6.70;99.90;;;;;;5115433;27;20382;-78
2023/12/06 07:17:29;;;;;;;3.70;2.70;;;6.80;99.90;;;;;;5115688;27;20027;-77
2023/12/06 07:19:55;;;;;;;4.13;2.40;;;6.80;99.90;;;;;;5134317;27;20033;-78
2023/12/06 07:22:22;;;;;;;2.83;2.00;;;6.70;99.90;;;;;;5134568;27;20031;-77
2023/12/06 07:24:48;;;;;;;2.50;2.00;;;6.80;99.90;;;;;;5134502;27;20023;-77
2023/12/06 07:27:14;;;;;;;7.03;1.80;;;6.80;99.90;;;;;;5134473;27;20028;-77
2023/12/06 07:29:42;;;;;;;3.40;1.55;;;6.80;99.90;;;;;;5135031;27;20063;-76
2023/12/06 07:32:08;;;;;;;2.05;1.67;;;6.80;99.90;;;;;;5133611;27;20322;-78
2023/12/06 07:34:34;;;;;;;6.55;1.80;;;6.80;99.90;;;;;;5134445;27;20428;-78
2023/12/06 07:37:00;;;;;;;4.28;1.95;;;6.80;99.90;;;;;;5133518;27;20075;-78
2023/12/06 07:39:26;;;;;;;4.53;1.90;;;6.90;99.90;;;;;;5114947;27;20034;-78
2023/12/06 07:41:51;;;;;;;5.15;1.77;;;6.90;99.90;;;;;;5134333;27;20035;-77
2023/12/06 07:44:20;;;;;;;6.82;2.47;;;6.90;99.90;;;;;;5133201;27;20383;-78
2023/12/06 07:46:46;;;;;;;2.78;2.17;;;6.90;99.90;;;;;;5133844;27;20436;-77
2023/12/06 07:49:12;;;;;;;10.45;2.20;;;6.90;99.90;;;;;;5133522;27;20027;-78
2023/12/06 07:51:38;;;;;;;5.55;2.10;;;7.00;99.90;;;;;;5133728;27;20031;-78
2023/12/06 07:54:04;;;;;;;5.05;2.30;;;7.00;99.90;;;;;;5133490;27;20043;-78
2023/12/06 07:56:30;;;;;;;4.38;2.15;;;7.00;99.90;;;;;;5133982;27;20047;-78
2023/12/06 07:58:58;;;;;;;6.07;2.90;;;7.00;99.90;;;;;;5133775;27;20312;-79
2023/12/06 08:01:28;;;;;;;4.28;2.28;;;7.00;99.90;;;;;;5133962;27;20179;-78
2023/12/06 08:03:54;;;;;;;11.25;3.00;;;7.00;99.90;;;;;;5133340;27;20379;-77
2023/12/06 08:06:20;;;;;;;7.78;3.22;;;7.00;99.90;;;;;;5132848;27;20023;-78
2023/12/06 08:08:50;;;;;;;5.68;2.60;;;7.00;99.90;;;;;;5133696;27;20436;-78
2023/12/06 08:11:16;;;;;;;4.03;2.30;;;7.00;99.90;;;;;;5133023;27;20035;-78
2023/12/06 08:13:42;;;;;;;5.00;2.30;;;7.00;99.90;;;;;;5133398;27;20443;-76
2023/12/06 08:16:08;;;;;;;4.85;2.70;;;7.00;99.90;;;;;;5132314;27;20042;-77
2023/12/06 08:18:33;;;;;;;7.70;2.75;;;7.00;99.90;;;;;;5133561;27;20031;-78
2023/12/06 08:20:59;;;;;;;4.28;2.30;;;7.10;99.90;;;;;;5114202;27;20023;-78
2023/12/06 08:23:25;;;;;;;7.43;2.50;;;7.10;99.90;;;;;;5133259;27;20035;-78
2023/12/06 08:25:50;;;;;;;6.88;2.22;;;7.10;99.90;;;;;;5133421;27;20042;-77
2023/12/06 08:28:16;;;;;;;5.43;2.10;;;7.20;99.90;;;;;;5132666;27;20030;-78
2023/12/06 08:30:42;;;;;;;12.13;2.78;;;7.20;99.90;;;;;;5132493;27;20384;-77
2023/12/06 08:33:08;;;;;;;5.20;2.15;;;7.30;99.90;;;;;;5132429;27;20106;-78
2023/12/06 08:35:33;;;;;;;8.95;2.33;;;7.30;99.90;;;;;;5132916;27;20059;-78
2023/12/06 08:37:59;;;;;;;6.93;2.47;;;7.30;99.90;;;;;;5132550;27;20038;-78
2023/12/06 08:40:26;;;;;;;5.45;2.25;;;7.40;99.90;;;;;;5132321;27;20030;-78
2023/12/06 08:42:52;;;;;;;5.85;2.78;;;7.40;99.90;;;;;;5132759;27;20035;-78
2023/12/06 08:45:18;;;;;;;5.55;2.10;;;7.50;99.90;;;;;;5131704;27;20408;-78
2023/12/06 08:47:43;;;;;;;9.60;3.95;;;7.50;99.90;;;;;;5132712;27;20042;-78
2023/12/06 08:50:10;;;;;;;7.38;2.35;;;7.50;99.90;;;;;;5132025;27;20023;-78
2023/12/06 08:52:35;;;;;;;5.13;2.90;;;7.60;99.90;;;;;;5114204;27;20038;-78
2023/12/06 08:55:03;;;;;;;8.23;3.55;;;7.60;99.90;;;;;;5131941;27;20043;-79
2023/12/06 08:57:29;;;;;;;5.55;3.30;;;7.70;99.90;;;;;;5132838;27;20080;-78
2023/12/06 08:59:55;;;;;;;5.63;2.78;;;7.60;99.90;;;;;;5132474;27;20083;-77
2023/12/06 09:02:20;;;;;;;4.80;2.20;;;7.60;99.90;;;;;;5131920;27;20174;-78
2023/12/06 09:04:46;;;;;;;9.32;2.08;;;7.60;99.90;;;;;;5132447;27;20102;-78
2023/12/06 09:07:12;;;;;;;8.32;2.53;;;7.70;99.90;;;;;;5131537;27;20051;-78
2023/12/06 09:09:37;;;;;;;6.53;2.63;;;7.80;99.90;;;;;;5132524;27;20106;-78
2023/12/06 09:12:03;;;;;;;7.47;2.20;;;7.80;99.90;;;;;;5133551;27;20525;-78
2023/12/06 09:14:29;;;;;;;5.63;2.22;;;7.80;99.90;;;;;;5132927;27;20064;-77
2023/12/06 09:16:55;;;;;;;3.70;1.83;;;7.80;99.90;;;;;;5133387;27;20378;-77
2023/12/06 09:19:21;;;;;;;6.43;2.08;;;7.90;99.90;;;;;;5133058;27;20027;-79
2023/12/06 09:21:47;;;;;;;7.93;1.85;;;7.90;99.90;;;;;;5132766;27;20495;-78
2023/12/06 09:24:13;;;;;;;6.72;2.17;;;8.10;99.90;;;;;;5132459;27;20026;-79
2023/12/06 09:26:40;;;;;;;6.65;2.13;;;8.10;99.90;;;;;;5133599;27;20456;-79
2023/12/06 09:29:10;;;;;;;5.93;2.10;;;8.10;99.90;;;;;;5133237;27;20031;-77
2023/12/06 09:31:37;;;;;;;5.10;1.70;;;8.10;99.90;;;;;;5133606;27;20031;-78
2023/12/06 09:34:03;;;;;;;5.65;2.10;;;8.20;99.90;;;;;;5132895;27;20028;-78
2023/12/06 09:36:30;;;;;;;8.18;2.35;;;8.20;99.90;;;;;;5132407;27;20023;-78
2023/12/06 09:38:59;;;;;;;5.03;1.92;;;8.20;99.90;;;;;;5132447;27;20112;-78
2023/12/06 09:41:29;;;;;;;7.43;2.60;;;8.30;99.90;;;;;;5131880;27;20092;-77
2023/12/06 09:43:56;;;;;;;6.65;2.03;;;8.20;99.90;;;;;;5113439;27;20122;-78
2023/12/06 09:46:22;;;;;;;3.95;2.30;;;8.30;99.90;;;;;;5131250;27;20031;-78
2023/12/06 09:48:48;;;;;;;6.38;2.65;;;8.30;99.90;;;;;;5131977;27;20066;-78
2023/12/06 09:51:19;;;;;;;4.85;2.28;;;8.20;99.90;;;;;;5113125;27;20053;-78
2023/12/06 09:53:45;;;;;;;8.15;2.60;;;8.20;99.90;;;;;;5131965;27;20019;-79
2023/12/06 09:56:12;;;;;;;10.13;2.13;;;8.20;99.90;;;;;;5130941;27;20043;-79
2023/12/06 09:58:39;;;;;;;6.63;2.15;;;8.20;99.90;;;;;;5131215;27;20038;-79
2023/12/06 10:01:05;;;;;;;6.55;1.98;;;8.20;99.90;;;;;;5113037;28;20123;-79
2023/12/06 10:03:31;;;;;;;6.28;2.03;;;8.30;99.90;;;;;;5131786;27;20131;-79
2023/12/06 10:06:03;;;;;;;8.40;2.65;;;8.30;99.90;;;;;;5131503;27;20019;-78
2023/12/06 10:08:31;;;;;;;7.20;2.30;;;8.30;99.90;;;;;;5112957;28;20118;-78
2023/12/06 10:11:03;;;;;;;5.30;1.80;;;8.30;99.90;;;;;;5131487;28;20593;-77
2023/12/06 10:13:40;;;;;;;8.75;2.35;;;8.40;99.90;;;;;;5131436;28;20031;-78
2023/12/06 10:16:19;;;;;;;9.60;2.40;;;8.40;99.90;;;;;;5131527;28;20051;-79
2023/12/06 10:18:47;;;;;;;11.48;2.80;;;8.40;99.90;;;;;;5112900;28;20076;-79
2023/12/06 10:21:13;;;;;;;7.25;2.15;;;8.40;99.90;;;;;;5130282;28;20027;-79
2023/12/06 10:23:38;;;;;;;6.70;1.90;;;8.40;99.90;;;;;;5131262;28;20031;-78
2023/12/06 10:26:16;;;;;;;10.05;2.50;;;8.50;99.90;;;;;;5131165;28;20175;-78
2023/12/06 10:28:45;;;;;;;11.50;2.85;;;8.40;99.90;;;;;;5131233;28;20393;-77
2023/12/06 10:31:10;;;;;;;11.88;2.75;;;8.40;99.90;;;;;;5130619;28;20476;-78
2023/12/06 10:33:39;;;;;;;6.30;2.10;;;8.40;99.90;;;;;;5131139;28;20069;-78
2023/12/06 10:36:08;;;;;;;11.55;2.97;;;8.40;99.90;;;;;;5130758;28;20044;-77
2023/12/06 10:38:37;;;;;;;13.32;3.08;;;8.40;99.90;;;;;;5131025;28;20023;-78
2023/12/06 10:41:04;;;;;;;8.68;2.35;;;8.40;99.90;;;;;;5130937;28;20031;-79
2023/12/06 10:43:32;;;;;;;10.60;2.67;;;8.40;99.90;;;;;;5130183;28;20387;-77
2023/12/06 10:45:59;;;;;;;5.88;2.30;;;8.40;99.90;;;;;;5131452;28;20090;-78
2023/12/06 10:48:26;;;;;;;6.95;2.30;;;8.40;99.90;;;;;;5130594;28;20483;-78
2023/12/06 10:50:53;;;;;;;10.68;2.95;;;8.40;99.90;;;;;;5131348;28;20015;-78
2023/12/06 10:53:20;;;;;;;5.07;2.40;;;8.40;99.90;;;;;;5130436;28;20167;-79
2023/12/06 10:55:47;;;;;;;10.55;2.85;;;8.40;99.90;;;;;;5131060;28;20147;-77
2023/12/06 10:58:16;;;;;;;9.15;2.78;;;8.40;99.90;;;;;;5130545;28;20324;-79
2023/12/06 11:00:43;;;;;;;8.43;2.28;;;8.40;99.90;;;;;;5130901;28;20049;-75
2023/12/06 11:03:10;;;;;;;9.27;3.15;;;8.40;99.90;;;;;;5130610;28;20035;-77
2023/12/06 11:05:41;;;;;;;8.48;2.97;;;8.40;99.90;;;;;;5130911;28;20396;-76
2023/12/06 11:08:24;;;;;;;12.98;3.38;;;8.40;99.90;;;;;;5130862;28;20030;-77
2023/12/06 11:10:59;;;;;;;11.70;3.33;;;8.40;99.90;;;;;;5130641;28;20023;-77
2023/12/06 11:13:46;;;;;;;9.68;2.50;;;8.40;99.90;;;;;;5130912;27;20080;-77
2023/12/06 11:16:56;;;;;;;11.95;2.80;;;8.40;99.90;;;;;;5134081;27;20080;-79
2023/12/06 11:19:23;;;;;;;10.20;2.35;;;8.50;99.90;;;;;;5112856;27;20039;-77
2023/12/06 11:21:48;;;;;;;8.55;2.17;;;8.50;99.90;;;;;;5133738;27;20743;-77
2023/12/06 11:24:15;;;;;;;12.85;2.90;;;8.60;99.90;;;;;;5134270;27;20062;-78
2023/12/06 11:26:41;;;;;;;12.85;2.60;;;8.60;99.90;;;;;;5135616;27;20080;-79
2023/12/06 11:29:07;;;;;;;11.55;2.80;;;8.60;99.90;;;;;;5133649;27;20054;-77
2023/12/06 11:31:37;;;;;;;13.20;4.18;;;8.60;99.90;;;;;;5115041;27;20425;-79
2023/12/06 11:34:05;;;;;;;10.23;2.97;;;8.60;99.90;;;;;;5133811;27;20031;-79
2023/12/06 11:36:30;;;;;;;8.23;3.00;;;8.60;99.90;;;;;;5133365;27;20530;-79
2023/12/06 11:38:56;;;;;;;11.73;3.42;;;8.50;99.90;;;;;;5133704;27;20034;-78
2023/12/06 11:41:22;;;;;;;10.63;3.15;;;8.50;99.90;;;;;;5132635;27;20128;-77
2023/12/06 11:43:50;;;;;;;12.75;3.75;;;8.50;99.90;;;;;;5133579;27;20019;-78
2023/12/06 11:46:16;;;;;;;9.05;3.55;;;8.50;99.90;;;;;;5132981;27;20067;-78
2023/12/06 11:48:47;;;;;;;12.43;3.28;;;8.50;99.90;;;;;;5133547;27;20023;-77
2023/12/06 11:51:24;;;;;;;13.65;3.58;;;8.50;99.90;;;;;;5132821;27;20108;-79
2023/12/06 11:53:51;;;;;;;14.73;3.97;;;8.50;99.90;;;;;;5133080;27;20042;-79
2023/12/06 11:56:24;;;;;;;12.73;4.43;;;8.50;99.90;;;;;;5114034;27;20043;-79
2023/12/06 11:58:50;;;;;;;14.43;4.03;;;8.40;99.90;;;;;;5133004;27;20027;-78
2023/12/06 12:01:18;;;;;;;13.02;4.22;;;8.40;99.90;;;;;;5113816;27;20050;-80
2023/12/06 12:03:45;;;;;;;13.27;3.65;;;8.40;99.90;;;;;;5133284;27;20023;-79
2023/12/06 12:06:15;;;;;;;11.10;3.95;;;8.40;99.90;;;;;;5132937;27;20019;-79
2023/12/06 12:08:41;;;;;;;16.00;5.20;;;8.40;99.90;;;;;;5133078;27;20035;-79
2023/12/06 12:11:09;;;;;;;13.45;4.38;;;8.40;99.90;;;;;;5133579;27;20470;-78
2023/12/06 12:13:40;;;;;;;13.65;4.10;;;8.40;99.90;;;;;;5132507;27;20056;-78
2023/12/06 12:16:06;;;;;;;13.60;4.10;;;8.30;99.90;;;;;;5133285;27;20030;-78
2023/12/06 12:18:33;;;;;;;13.40;4.05;;;8.40;99.90;;;;;;5132516;27;20467;-77
2023/12/06 12:20:59;;;;;;;10.50;3.75;;;8.40;99.90;;;;;;5132469;27;20026;-77
2023/12/06 12:23:26;;;;;;;11.05;3.70;;;8.40;99.90;;;;;;5132140;27;20031;-78
2023/12/06 12:25:52;;;;;;;11.88;3.28;;;8.40;99.90;;;;;;5132048;27;20199;-77
2023/12/06 12:28:20;;;;;;;9.98;3.42;;;8.40;99.90;;;;;;5131697;27;20490;-78
2023/12/06 12:31:07;;;;;;;10.25;3.80;;;8.40;99.90;;;;;;5113984;27;20380;-78
2023/12/06 12:33:33;;;;;;;12.88;3.63;;;8.40;99.90;;;;;;5131769;27;20095;-78
2023/12/06 12:36:00;;;;;;;11.55;4.03;;;8.40;99.90;;;;;;5132371;27;20038;-78
2023/12/06 12:38:26;;;;;;;14.27;3.83;;;8.40;99.90;;;;;;5131649;27;20445;-78
2023/12/06 12:40:52;;;;;;;12.35;4.38;;;8.40;99.90;;;;;;5132610;27;20107;-78
2023/12/06 12:43:18;;;;;;;17.65;4.10;;;8.40;99.90;;;;;;5132073;27;20080;-79
2023/12/06 12:45:44;;;;;;;12.07;3.58;;;8.50;99.90;;;;;;5131752;27;20425;-78